Terminal Aerodrome Forecast
Issued by NWS Chicago, IL

Home | Current Version | Previous Version | Text Only | Print | Product List | Glossary Off
Versions: 1 2 3 4 5 6 7 8 9 10 11 12 13 14 15 16 17 18 19 20 21 22 23 24 25 26 27 28 29 30 31 32 33 34 35 36 37

000
FTUS43 KLOT 180300 AAB
TAFRFD
TAF AMD
KRFD 180302Z 1803/1824 32012G20KT P6SM BKN025 OVC035
     FM180400 34012G17KT P6SM SCT025 BKN035 OVC050
     FM181000 34010KT P6SM BKN025
     FM181700 34012KT P6SM BKN030
     FM182100 35007KT P6SM FEW030=

USA.gov is the U.S. government's official web portal to all federal, state and local government web resources and services.